createdAt,value
2017-11-07T00:00:24.849Z,0
2017-11-07T00:00:50.980Z,0
2017-11-07T00:01:17.111Z,0
2017-11-07T00:01:43.230Z,0
2017-11-07T00:02:09.352Z,0
2017-11-07T00:02:35.464Z,0
2017-11-07T00:03:01.593Z,0
2017-11-07T00:03:27.742Z,0
2017-11-07T00:03:53.861Z,0
2017-11-07T00:04:19.980Z,0
2017-11-07T00:04:46.103Z,0
2017-11-07T00:05:12.249Z,0
2017-11-07T00:05:38.363Z,0
2017-11-07T00:06:04.487Z,0
2017-11-07T00:06:30.607Z,0
2017-11-07T00:06:56.728Z,0
2017-11-07T00:07:22.848Z,0
2017-11-07T00:07:48.970Z,0
2017-11-07T00:08:15.091Z,0
2017-11-07T00:08:41.212Z,0
2017-11-07T00:09:07.351Z,0
2017-11-07T00:09:33.467Z,0
2017-11-07T00:09:59.596Z,0
2017-11-07T00:10:25.708Z,0
2017-11-07T00:10:51.831Z,0
2017-11-07T00:11:17.949Z,0
2017-11-07T00:11:44.070Z,0
2017-11-07T00:12:10.186Z,0
2017-11-07T00:12:36.302Z,0
2017-11-07T00:13:02.418Z,0
2017-11-07T00:13:28.540Z,0
2017-11-07T00:13:54.656Z,0
2017-11-07T00:14:20.777Z,0
2017-11-07T00:14:46.911Z,0
2017-11-07T00:15:13.040Z,0
2017-11-07T00:15:39.160Z,0
2017-11-07T00:16:05.283Z,0
2017-11-07T00:16:31.402Z,0
2017-11-07T00:16:57.523Z,0
2017-11-07T00:17:23.636Z,0
2017-11-07T00:17:49.759Z,0
2017-11-07T00:18:15.882Z,0
2017-11-07T00:18:41.998Z,0
2017-11-07T00:19:08.123Z,0
2017-11-07T00:19:34.238Z,0
2017-11-07T00:20:00.361Z,0
2017-11-07T00:20:26.478Z,0
2017-11-07T00:20:52.599Z,0
2017-11-07T00:21:18.725Z,0
2017-11-07T00:21:44.836Z,0
2017-11-07T00:22:10.959Z,0
2017-11-07T00:22:37.077Z,0
2017-11-07T00:23:03.221Z,0
2017-11-07T00:23:29.336Z,0
2017-11-07T00:23:55.463Z,0
2017-11-07T00:24:21.623Z,0
2017-11-07T00:24:47.737Z,0
2017-11-07T00:25:13.861Z,0
2017-11-07T00:25:39.978Z,0
2017-11-07T00:26:06.096Z,0
2017-11-07T00:26:32.214Z,0
2017-11-07T00:26:58.336Z,0
2017-11-07T00:27:24.455Z,0
2017-11-07T00:27:50.580Z,0
2017-11-07T00:28:16.699Z,0
2017-11-07T00:28:42.817Z,0
2017-11-07T00:29:08.947Z,0
2017-11-07T00:29:35.064Z,0
2017-11-07T00:30:01.183Z,0
2017-11-07T00:30:27.320Z,0
2017-11-07T00:30:53.441Z,0
2017-11-07T00:31:19.565Z,0
2017-11-07T00:31:45.678Z,0
2017-11-07T00:32:11.800Z,0
2017-11-07T00:32:37.925Z,0
2017-11-07T00:33:04.054Z,0
2017-11-07T00:33:30.156Z,0
2017-11-07T00:33:56.275Z,0
2017-11-07T00:34:22.399Z,0
2017-11-07T00:34:48.525Z,0
2017-11-07T00:35:14.645Z,0
2017-11-07T00:35:40.762Z,0
2017-11-07T00:36:06.886Z,0
2017-11-07T00:36:33.002Z,0
2017-11-07T00:36:59.128Z,0
2017-11-07T00:37:25.251Z,0
2017-11-07T00:37:51.388Z,0
2017-11-07T00:38:17.503Z,0
2017-11-07T00:38:43.623Z,0
2017-11-07T00:39:09.741Z,0
2017-11-07T00:39:35.887Z,0
2017-11-07T00:40:02.005Z,0
2017-11-07T00:40:28.128Z,0
2017-11-07T00:40:54.252Z,0
2017-11-07T00:41:20.371Z,0
2017-11-07T00:41:46.486Z,0
2017-11-07T00:42:12.611Z,0
2017-11-07T00:42:38.732Z,0
2017-11-07T00:43:04.849Z,0
2017-11-07T00:43:30.970Z,0
2017-11-07T00:43:57.110Z,0
2017-11-07T00:44:23.215Z,0
2017-11-07T00:44:49.329Z,0
2017-11-07T00:45:15.452Z,0
2017-11-07T00:45:41.567Z,0
2017-11-07T00:46:07.693Z,0
2017-11-07T00:46:33.811Z,0
2017-11-07T00:46:59.927Z,0
2017-11-07T00:47:26.045Z,0
2017-11-07T00:47:52.161Z,0
2017-11-07T00:48:18.287Z,0
2017-11-07T00:48:44.414Z,0
2017-11-07T00:49:10.530Z,0
2017-11-07T00:49:36.667Z,0
2017-11-07T00:50:02.767Z,0
2017-11-07T00:50:28.899Z,0
2017-11-07T00:50:55.009Z,0
2017-11-07T00:51:21.133Z,0
2017-11-07T00:51:47.252Z,0
2017-11-07T00:52:13.367Z,0
2017-11-07T00:52:39.494Z,0
2017-11-07T00:53:05.615Z,0
2017-11-07T00:53:31.733Z,0
2017-11-07T00:53:57.853Z,0
2017-11-07T00:54:23.979Z,0
2017-11-07T00:54:50.092Z,0
2017-11-07T00:55:16.216Z,0
2017-11-07T00:55:42.336Z,0
2017-11-07T00:56:08.453Z,0
2017-11-07T00:56:34.577Z,0
2017-11-07T00:57:00.688Z,0
2017-11-07T00:57:26.802Z,0
2017-11-07T00:57:52.923Z,0
2017-11-07T00:58:19.044Z,0
2017-11-07T00:58:45.162Z,0
2017-11-07T00:59:11.280Z,0
2017-11-07T00:59:37.408Z,0
2017-11-07T01:00:03.532Z,0
2017-11-07T01:00:29.646Z,0
2017-11-07T01:00:55.773Z,0
2017-11-07T01:01:21.899Z,0
2017-11-07T01:01:48.012Z,0
2017-11-07T01:02:14.130Z,0
2017-11-07T01:02:40.248Z,0
2017-11-07T01:03:06.370Z,0
2017-11-07T01:03:32.487Z,0
2017-11-07T01:03:58.624Z,0
2017-11-07T01:04:24.746Z,0
2017-11-07T01:04:50.861Z,0
2017-11-07T01:05:16.980Z,0
2017-11-07T01:05:43.107Z,0
2017-11-07T01:06:09.229Z,0
2017-11-07T01:06:35.370Z,0
2017-11-07T01:07:01.484Z,0
2017-11-07T01:07:27.601Z,0
2017-11-07T01:07:53.722Z,0
2017-11-07T01:08:19.841Z,0
2017-11-07T01:08:45.970Z,0
2017-11-07T01:09:12.084Z,0
2017-11-07T01:09:38.201Z,0
2017-11-07T01:10:04.321Z,0
2017-11-07T01:10:30.442Z,0
2017-11-07T01:10:56.564Z,0
2017-11-07T01:11:22.689Z,0
2017-11-07T01:11:48.805Z,0
2017-11-07T01:12:14.928Z,0
2017-11-07T01:12:41.042Z,0
2017-11-07T01:13:07.162Z,0
2017-11-07T01:13:33.281Z,0
2017-11-07T01:13:59.398Z,0
2017-11-07T01:14:25.522Z,0
2017-11-07T01:14:51.636Z,0
2017-11-07T01:15:17.762Z,0
2017-11-07T01:15:43.891Z,0
2017-11-07T01:16:09.998Z,0
2017-11-07T01:16:36.121Z,0
2017-11-07T01:17:02.237Z,0
2017-11-07T01:17:28.360Z,0
2017-11-07T01:17:54.476Z,0
2017-11-07T01:18:20.599Z,0
2017-11-07T01:18:46.715Z,0
2017-11-07T01:19:12.831Z,0
2017-11-07T01:19:38.957Z,0
2017-11-07T01:20:05.079Z,0
2017-11-07T01:20:31.203Z,0
2017-11-07T01:20:57.310Z,0
2017-11-07T01:21:23.430Z,0
2017-11-07T01:21:49.547Z,0
2017-11-07T01:22:15.669Z,0
2017-11-07T01:22:41.787Z,0
2017-11-07T01:23:07.914Z,0
2017-11-07T01:23:34.029Z,0
2017-11-07T01:24:00.144Z,0
2017-11-07T01:24:26.266Z,0
2017-11-07T01:24:52.387Z,0
2017-11-07T01:25:18.511Z,0
2017-11-07T01:25:44.630Z,0
2017-11-07T01:26:10.746Z,0
2017-11-07T01:26:36.869Z,0
2017-11-07T01:27:02.985Z,0
2017-11-07T01:27:29.105Z,0
2017-11-07T01:27:55.254Z,0
2017-11-07T01:28:21.367Z,0
2017-11-07T01:28:47.487Z,0
2017-11-07T01:29:13.603Z,0
2017-11-07T01:29:39.725Z,0
2017-11-07T01:30:05.860Z,0
2017-11-07T01:30:32.002Z,0
2017-11-07T01:30:58.130Z,0
2017-11-07T01:31:24.248Z,0
2017-11-07T01:31:50.363Z,0
2017-11-07T01:32:16.491Z,0
2017-11-07T01:32:42.622Z,0
2017-11-07T01:33:08.740Z,0
2017-11-07T01:33:34.863Z,0
2017-11-07T01:34:00.978Z,0
2017-11-07T01:34:27.121Z,0
2017-11-07T01:34:53.258Z,0
2017-11-07T01:35:19.382Z,0
2017-11-07T01:35:45.501Z,0
2017-11-07T01:36:11.616Z,0
2017-11-07T01:36:37.735Z,0
2017-11-07T01:37:03.858Z,0
2017-11-07T01:37:29.975Z,0
2017-11-07T01:37:56.098Z,0
2017-11-07T01:38:22.212Z,0
2017-11-07T01:38:48.339Z,0
2017-11-07T01:39:14.459Z,0
2017-11-07T01:39:40.573Z,0
2017-11-07T01:40:06.724Z,0
2017-11-07T01:40:32.845Z,0
2017-11-07T01:40:58.962Z,0
2017-11-07T01:41:25.076Z,0
2017-11-07T01:41:51.200Z,0
2017-11-07T01:42:17.311Z,0
2017-11-07T01:42:43.435Z,0
2017-11-07T01:43:09.549Z,0
2017-11-07T01:43:35.672Z,0
2017-11-07T01:44:01.791Z,0
2017-11-07T01:44:27.907Z,0
2017-11-07T01:44:54.053Z,0
2017-11-07T01:45:20.168Z,0
2017-11-07T01:45:46.290Z,0
2017-11-07T01:46:12.417Z,0
2017-11-07T01:46:38.554Z,0
2017-11-07T01:47:04.670Z,0
2017-11-07T01:47:30.796Z,0
2017-11-07T01:47:56.907Z,0
2017-11-07T01:48:23.027Z,0
2017-11-07T01:48:49.140Z,0
2017-11-07T01:49:15.271Z,0
2017-11-07T01:49:41.395Z,0
2017-11-07T01:50:07.510Z,0
2017-11-07T01:50:33.635Z,0
2017-11-07T01:50:59.771Z,0
2017-11-07T01:51:25.895Z,0
2017-11-07T01:51:52.008Z,0
2017-11-07T01:52:18.131Z,0
2017-11-07T01:52:44.271Z,0
2017-11-07T01:53:10.388Z,0
2017-11-07T01:53:36.513Z,0
2017-11-07T01:54:02.634Z,0
2017-11-07T01:54:28.749Z,0
2017-11-07T01:54:54.875Z,0
2017-11-07T01:55:20.990Z,0
2017-11-07T01:55:47.110Z,0
2017-11-07T01:56:13.228Z,0
2017-11-07T01:56:39.351Z,0
2017-11-07T01:57:05.467Z,0
2017-11-07T01:57:31.586Z,0
2017-11-07T01:57:57.711Z,0
2017-11-07T01:58:23.823Z,0
2017-11-07T01:58:56.222Z,0
2017-11-07T01:59:22.333Z,0
2017-11-07T01:59:48.447Z,0
2017-11-07T02:00:14.574Z,0
2017-11-07T02:00:40.695Z,0
2017-11-07T02:01:06.807Z,0
2017-11-07T02:01:32.921Z,0
2017-11-07T02:01:59.045Z,0
2017-11-07T02:02:25.168Z,0
2017-11-07T02:02:51.284Z,0
2017-11-07T02:03:17.407Z,0
2017-11-07T02:03:43.523Z,0
2017-11-07T02:04:09.647Z,0
2017-11-07T02:04:35.776Z,0
2017-11-07T02:05:01.886Z,0
2017-11-07T02:05:27.998Z,0
2017-11-07T02:05:54.121Z,0
2017-11-07T02:06:20.260Z,0
2017-11-07T02:06:46.384Z,0
2017-11-07T02:07:12.506Z,0
2017-11-07T02:07:38.619Z,0
2017-11-07T02:08:04.737Z,0
2017-11-07T02:08:30.862Z,0
2017-11-07T02:08:56.984Z,0
2017-11-07T02:09:23.100Z,0
2017-11-07T02:09:49.226Z,0
2017-11-07T02:10:15.339Z,0
2017-11-07T02:10:41.458Z,0
2017-11-07T02:11:07.576Z,0
2017-11-07T02:11:33.695Z,0
2017-11-07T02:11:59.822Z,0
2017-11-07T02:12:25.938Z,0
2017-11-07T02:12:52.062Z,0
2017-11-07T02:13:18.185Z,0
2017-11-07T02:13:44.312Z,0
2017-11-07T02:14:10.446Z,0
2017-11-07T02:14:36.561Z,0
2017-11-07T02:15:02.681Z,0
2017-11-07T02:15:28.803Z,0
2017-11-07T02:15:54.930Z,0
2017-11-07T02:16:21.052Z,0
2017-11-07T02:16:47.168Z,0
2017-11-07T02:17:13.286Z,0
2017-11-07T02:17:39.405Z,0
2017-11-07T02:18:05.530Z,0
2017-11-07T02:18:31.645Z,0
2017-11-07T02:18:57.768Z,0
2017-11-07T02:19:23.885Z,0
2017-11-07T02:19:50.005Z,0
2017-11-07T02:20:16.120Z,0
2017-11-07T02:20:42.239Z,0
2017-11-07T02:21:08.366Z,0
2017-11-07T02:21:34.476Z,0
2017-11-07T02:22:00.597Z,0
2017-11-07T02:22:26.715Z,0
2017-11-07T02:22:52.842Z,0
2017-11-07T02:23:18.961Z,0
2017-11-07T02:23:45.084Z,0
2017-11-07T02:24:11.198Z,0
2017-11-07T02:24:37.315Z,0
2017-11-07T02:25:03.437Z,0
2017-11-07T02:25:29.553Z,0
2017-11-07T02:25:55.671Z,0
2017-11-07T02:26:21.789Z,0
2017-11-07T02:26:47.912Z,0
2017-11-07T02:27:14.034Z,0
2017-11-07T02:27:40.153Z,0
2017-11-07T02:28:06.277Z,0
2017-11-07T02:28:32.389Z,0
2017-11-07T02:28:58.513Z,0
2017-11-07T02:29:24.630Z,0
2017-11-07T02:29:50.753Z,0
2017-11-07T02:30:16.871Z,0
2017-11-07T02:30:42.988Z,0
2017-11-07T02:31:09.113Z,0
2017-11-07T02:31:35.235Z,0
2017-11-07T02:32:01.353Z,0
2017-11-07T02:32:27.495Z,0
2017-11-07T02:32:53.609Z,0
2017-11-07T02:33:19.733Z,0
2017-11-07T02:33:45.848Z,0
2017-11-07T02:34:11.972Z,0
2017-11-07T02:34:38.092Z,0
2017-11-07T02:35:04.214Z,0
2017-11-07T02:35:30.327Z,0
2017-11-07T02:35:56.446Z,0
2017-11-07T02:36:22.570Z,0
2017-11-07T02:36:48.686Z,0
2017-11-07T02:37:14.811Z,0
2017-11-07T02:37:40.925Z,0
2017-11-07T02:38:07.042Z,0
2017-11-07T02:38:33.163Z,0
2017-11-07T02:38:59.278Z,0
2017-11-07T02:39:25.397Z,0
2017-11-07T02:39:51.526Z,0
2017-11-07T02:40:17.634Z,0
2017-11-07T02:40:43.761Z,0
2017-11-07T02:41:09.877Z,0
2017-11-07T02:41:35.993Z,0
2017-11-07T02:42:02.118Z,0
2017-11-07T02:42:28.235Z,0
2017-11-07T02:42:54.357Z,0
2017-11-07T02:43:20.479Z,0
2017-11-07T02:43:46.593Z,0
2017-11-07T02:44:12.714Z,0
2017-11-07T02:44:38.828Z,0
2017-11-07T02:45:04.946Z,0
2017-11-07T02:45:31.073Z,0
2017-11-07T02:45:57.192Z,0
2017-11-07T02:46:23.309Z,0
2017-11-07T02:46:49.429Z,0
2017-11-07T02:47:15.553Z,0
2017-11-07T02:47:41.670Z,0
2017-11-07T02:48:07.794Z,0
2017-11-07T02:48:33.915Z,0
2017-11-07T02:49:00.037Z,0
2017-11-07T02:49:26.152Z,0
2017-11-07T02:49:52.270Z,0
2017-11-07T02:50:18.394Z,0
2017-11-07T02:50:44.509Z,0
2017-11-07T02:51:10.633Z,0
2017-11-07T02:51:36.746Z,0
2017-11-07T02:52:02.889Z,0
2017-11-07T02:52:29.012Z,0
2017-11-07T02:52:55.127Z,0
2017-11-07T02:53:21.245Z,0
2017-11-07T02:53:47.371Z,0
2017-11-07T02:54:13.491Z,0
2017-11-07T02:54:39.606Z,0
2017-11-07T02:55:05.725Z,0
2017-11-07T02:55:31.848Z,0
2017-11-07T02:55:57.962Z,0
2017-11-07T02:56:24.084Z,0
2017-11-07T02:56:50.208Z,0
2017-11-07T02:57:16.325Z,0
2017-11-07T02:57:42.448Z,0
2017-11-07T02:58:08.562Z,0
2017-11-07T02:58:34.680Z,0
2017-11-07T02:59:00.806Z,0
2017-11-07T02:59:26.940Z,0
2017-11-07T02:59:53.078Z,0
2017-11-07T03:00:19.183Z,0
2017-11-07T03:00:45.307Z,0
2017-11-07T03:01:11.431Z,0
2017-11-07T03:01:37.549Z,0
2017-11-07T03:02:03.670Z,0
2017-11-07T03:02:29.792Z,0
2017-11-07T03:02:55.919Z,0
2017-11-07T03:03:22.026Z,0
2017-11-07T03:03:48.142Z,0
2017-11-07T03:04:14.274Z,0
2017-11-07T03:04:40.386Z,0
2017-11-07T03:05:06.507Z,0
2017-11-07T03:05:32.618Z,0
2017-11-07T03:05:58.735Z,0
2017-11-07T03:06:24.861Z,0
2017-11-07T03:06:50.977Z,0
2017-11-07T03:07:17.100Z,0
2017-11-07T03:07:43.223Z,0
2017-11-07T03:08:09.340Z,0
2017-11-07T03:08:35.460Z,0
2017-11-07T03:09:01.584Z,0
2017-11-07T03:09:27.698Z,0
2017-11-07T03:09:53.818Z,0
2017-11-07T03:10:19.937Z,0
2017-11-07T03:10:46.055Z,0
2017-11-07T03:11:12.172Z,0
2017-11-07T03:11:38.295Z,0
2017-11-07T03:12:04.410Z,0
2017-11-07T03:12:30.534Z,0
2017-11-07T03:12:56.651Z,0
2017-11-07T03:13:22.775Z,0
2017-11-07T03:13:48.892Z,0
2017-11-07T03:14:15.006Z,0
2017-11-07T03:14:41.130Z,0
2017-11-07T03:15:07.246Z,0
2017-11-07T03:15:33.366Z,0
2017-11-07T03:15:59.493Z,0
2017-11-07T03:16:25.616Z,0
2017-11-07T03:16:51.731Z,0
2017-11-07T03:17:17.846Z,0
2017-11-07T03:17:43.969Z,0
2017-11-07T03:18:10.083Z,0
2017-11-07T03:18:36.208Z,0
2017-11-07T03:19:02.322Z,0
2017-11-07T03:19:28.437Z,0
2017-11-07T03:19:54.562Z,0
2017-11-07T03:20:20.703Z,0
2017-11-07T03:20:46.823Z,0
2017-11-07T03:21:12.939Z,0
2017-11-07T03:21:39.063Z,0
2017-11-07T03:22:05.178Z,0
2017-11-07T03:22:31.299Z,0
2017-11-07T03:22:57.415Z,0
2017-11-07T03:23:23.532Z,0
2017-11-07T03:23:49.650Z,0
2017-11-07T03:24:15.775Z,0
2017-11-07T03:24:41.893Z,0
2017-11-07T03:25:08.012Z,0
2017-11-07T03:25:34.138Z,0
2017-11-07T03:26:00.261Z,0
2017-11-07T03:26:26.376Z,0
2017-11-07T03:26:52.498Z,0
2017-11-07T03:27:18.617Z,0
2017-11-07T03:27:44.736Z,0
2017-11-07T03:28:10.858Z,0
2017-11-07T03:28:36.985Z,0
2017-11-07T03:29:03.095Z,0
2017-11-07T03:29:29.215Z,0
2017-11-07T03:29:55.332Z,0
2017-11-07T03:30:21.455Z,0
2017-11-07T03:30:47.606Z,0
2017-11-07T03:31:13.704Z,0
2017-11-07T03:31:39.834Z,0
2017-11-07T03:32:05.953Z,0
2017-11-07T03:32:32.078Z,0
2017-11-07T03:32:58.199Z,0
2017-11-07T03:33:24.322Z,0
2017-11-07T03:33:50.441Z,0
2017-11-07T03:34:16.562Z,0
2017-11-07T03:34:42.675Z,0
2017-11-07T03:35:08.793Z,0
2017-11-07T03:35:34.916Z,0
2017-11-07T03:36:01.033Z,0
2017-11-07T03:36:27.153Z,0
2017-11-07T03:36:53.277Z,0
2017-11-07T03:37:19.395Z,0
2017-11-07T03:37:45.518Z,0
2017-11-07T03:38:11.634Z,0
2017-11-07T03:38:37.752Z,0
2017-11-07T03:39:03.875Z,0
2017-11-07T03:39:29.990Z,0
2017-11-07T03:39:56.112Z,0
2017-11-07T03:40:22.228Z,0
2017-11-07T03:40:48.350Z,0
2017-11-07T03:41:14.468Z,0
2017-11-07T03:41:40.587Z,0
2017-11-07T03:42:06.713Z,0
2017-11-07T03:42:32.839Z,0
2017-11-07T03:42:58.944Z,0
2017-11-07T03:43:25.074Z,0
2017-11-07T03:43:51.191Z,0
2017-11-07T03:44:17.330Z,0
2017-11-07T03:44:43.451Z,0
2017-11-07T03:45:09.566Z,0
2017-11-07T03:45:35.687Z,0
2017-11-07T03:46:01.806Z,0
2017-11-07T03:46:27.935Z,0
2017-11-07T03:46:54.050Z,0
2017-11-07T03:47:20.168Z,0
2017-11-07T03:47:46.293Z,0
2017-11-07T03:48:12.406Z,0
2017-11-07T03:48:38.528Z,0
2017-11-07T03:49:04.640Z,0
2017-11-07T03:49:30.764Z,0
2017-11-07T03:49:56.889Z,0
2017-11-07T03:50:23.000Z,0
2017-11-07T03:50:49.123Z,0
2017-11-07T03:51:15.244Z,0
2017-11-07T03:51:41.360Z,0
2017-11-07T03:52:07.479Z,0
2017-11-07T03:52:33.609Z,0
2017-11-07T03:52:59.725Z,0
2017-11-07T03:53:25.847Z,0
2017-11-07T03:53:51.958Z,0
2017-11-07T03:54:18.075Z,0
2017-11-07T03:54:44.191Z,0
2017-11-07T03:55:10.317Z,0
2017-11-07T03:55:36.435Z,0
2017-11-07T03:56:02.548Z,0
2017-11-07T03:56:28.662Z,0
2017-11-07T03:56:54.785Z,0
2017-11-07T03:57:20.906Z,0
2017-11-07T03:57:47.036Z,0
2017-11-07T03:58:13.148Z,0
2017-11-07T03:58:39.264Z,0
2017-11-07T03:59:05.384Z,0
2017-11-07T03:59:31.509Z,0
2017-11-07T03:59:57.630Z,0
2017-11-07T04:00:23.755Z,0
2017-11-07T04:00:49.869Z,0
2017-11-07T04:01:15.988Z,0
2017-11-07T04:01:42.095Z,0
2017-11-07T04:02:08.212Z,0
2017-11-07T04:02:34.335Z,0
2017-11-07T04:03:00.455Z,0
2017-11-07T04:03:26.580Z,0
2017-11-07T04:03:52.699Z,0
2017-11-07T04:04:18.814Z,0
2017-11-07T04:04:44.937Z,0
2017-11-07T04:05:11.055Z,0
2017-11-07T04:05:37.172Z,0
2017-11-07T04:06:03.299Z,0
2017-11-07T04:06:29.412Z,0
2017-11-07T04:06:55.536Z,0
2017-11-07T04:07:21.652Z,0
2017-11-07T04:07:47.771Z,0
2017-11-07T04:08:13.891Z,0
2017-11-07T04:08:40.014Z,0
2017-11-07T04:09:06.127Z,0
2017-11-07T04:09:32.254Z,0
2017-11-07T04:09:58.367Z,0
2017-11-07T04:10:24.491Z,0
2017-11-07T04:10:50.613Z,0
2017-11-07T04:11:16.728Z,0
2017-11-07T04:11:42.872Z,0
2017-11-07T04:12:08.990Z,0
2017-11-07T04:12:35.103Z,0
2017-11-07T04:13:01.227Z,0
2017-11-07T04:13:27.341Z,0
2017-11-07T04:13:53.466Z,0
2017-11-07T04:14:19.587Z,0
2017-11-07T04:14:45.701Z,0
2017-11-07T04:15:11.850Z,0
2017-11-07T04:15:37.966Z,0
2017-11-07T04:16:04.087Z,0
2017-11-07T04:16:30.201Z,0
2017-11-07T04:16:56.328Z,0
2017-11-07T04:17:22.443Z,0
2017-11-07T04:17:48.560Z,0
2017-11-07T04:18:14.681Z,0
2017-11-07T04:18:40.797Z,0
2017-11-07T04:19:06.921Z,0
2017-11-07T04:19:33.040Z,0
2017-11-07T04:19:59.164Z,0
2017-11-07T04:20:25.278Z,0
2017-11-07T04:20:51.400Z,0
2017-11-07T04:21:17.514Z,0
2017-11-07T04:21:43.632Z,0
2017-11-07T04:22:09.747Z,0
2017-11-07T04:22:35.873Z,0
2017-11-07T04:23:01.998Z,0
2017-11-07T04:23:28.110Z,0
2017-11-07T04:23:54.237Z,0
2017-11-07T04:24:20.355Z,0
2017-11-07T04:24:46.470Z,0
2017-11-07T04:25:12.594Z,0
2017-11-07T04:25:38.733Z,0
2017-11-07T04:26:04.848Z,0
2017-11-07T04:26:30.973Z,0
2017-11-07T04:26:57.084Z,0
2017-11-07T04:27:23.207Z,0
2017-11-07T04:27:49.319Z,0
2017-11-07T04:28:15.444Z,0
2017-11-07T04:28:41.566Z,0
2017-11-07T04:29:07.680Z,0
2017-11-07T04:29:33.804Z,0
2017-11-07T04:29:59.932Z,0
2017-11-07T04:30:26.050Z,0
2017-11-07T04:30:52.171Z,0
2017-11-07T04:31:18.284Z,0
2017-11-07T04:31:44.401Z,0
2017-11-07T04:32:10.526Z,0
2017-11-07T04:32:36.641Z,0
2017-11-07T04:33:02.766Z,0
2017-11-07T04:33:28.887Z,0
2017-11-07T04:33:55.000Z,0
2017-11-07T04:34:21.122Z,0
2017-11-07T04:34:47.239Z,0
2017-11-07T04:35:13.365Z,0
2017-11-07T04:35:39.477Z,0
2017-11-07T04:36:05.601Z,0
2017-11-07T04:36:31.734Z,0
2017-11-07T04:36:57.861Z,0
2017-11-07T04:37:23.973Z,0
2017-11-07T04:37:50.091Z,0
2017-11-07T04:38:16.239Z,0
2017-11-07T04:38:42.358Z,0
2017-11-07T04:39:08.471Z,0
2017-11-07T04:39:34.596Z,0
2017-11-07T04:40:00.716Z,0
2017-11-07T04:40:26.851Z,0
2017-11-07T04:40:52.976Z,0
2017-11-07T04:41:19.105Z,0
2017-11-07T04:41:45.224Z,0
2017-11-07T04:42:11.339Z,0
2017-11-07T04:42:37.466Z,0
2017-11-07T04:43:03.587Z,0
2017-11-07T04:43:29.707Z,0
2017-11-07T04:43:55.822Z,0
2017-11-07T04:44:21.942Z,0
2017-11-07T04:44:48.070Z,0
2017-11-07T04:45:14.185Z,0
2017-11-07T04:45:40.306Z,0
2017-11-07T04:46:06.425Z,0
2017-11-07T04:46:32.539Z,0
2017-11-07T04:46:58.657Z,0
2017-11-07T04:47:24.780Z,0
2017-11-07T04:47:50.893Z,0
2017-11-07T04:48:17.033Z,0
2017-11-07T04:48:43.142Z,0
2017-11-07T04:49:09.258Z,0
2017-11-07T04:49:35.375Z,0
2017-11-07T04:50:01.502Z,0
2017-11-07T04:50:27.620Z,0
2017-11-07T04:50:53.746Z,0
2017-11-07T04:51:19.859Z,0
2017-11-07T04:51:45.977Z,0
2017-11-07T04:52:12.100Z,0
2017-11-07T04:52:38.213Z,0
2017-11-07T04:53:04.337Z,0
2017-11-07T04:53:30.451Z,0
2017-11-07T04:53:56.573Z,0
2017-11-07T04:54:22.716Z,0
2017-11-07T04:54:48.832Z,0
2017-11-07T04:55:14.952Z,0
2017-11-07T04:55:41.076Z,0
2017-11-07T04:56:07.197Z,0
2017-11-07T04:56:33.315Z,0
2017-11-07T04:56:59.436Z,0
2017-11-07T04:57:25.552Z,0
2017-11-07T04:57:51.668Z,0
2017-11-07T04:58:17.797Z,0
2017-11-07T04:58:43.912Z,0
2017-11-07T04:59:10.047Z,0
2017-11-07T04:59:36.172Z,0
2017-11-07T05:00:02.296Z,0
2017-11-07T05:00:28.423Z,0
2017-11-07T05:00:54.547Z,0
2017-11-07T05:01:20.659Z,0
2017-11-07T05:01:46.784Z,0
2017-11-07T05:02:12.906Z,0
2017-11-07T05:02:39.021Z,0
2017-11-07T05:03:05.136Z,0
2017-11-07T05:03:31.254Z,0
2017-11-07T05:03:57.375Z,0
2017-11-07T05:04:23.499Z,0
2017-11-07T05:04:49.623Z,0
2017-11-07T05:05:15.738Z,0
2017-11-07T05:05:41.856Z,0
2017-11-07T05:06:07.980Z,0
2017-11-07T05:06:34.089Z,0
2017-11-07T05:07:00.209Z,0
2017-11-07T05:07:26.333Z,0
2017-11-07T05:07:52.451Z,0
2017-11-07T05:08:18.583Z,0
2017-11-07T05:08:44.693Z,0
2017-11-07T05:09:10.834Z,0
2017-11-07T05:09:36.959Z,0
2017-11-07T05:10:03.090Z,0
2017-11-07T05:10:29.216Z,0
2017-11-07T05:10:55.332Z,0
2017-11-07T05:11:21.449Z,0
2017-11-07T05:11:47.571Z,0
2017-11-07T05:12:13.685Z,0
2017-11-07T05:12:39.801Z,0
2017-11-07T05:13:05.925Z,0
2017-11-07T05:13:32.043Z,0
2017-11-07T05:13:58.165Z,0
2017-11-07T05:14:24.285Z,0
2017-11-07T05:14:50.408Z,0
2017-11-07T05:15:16.522Z,0
2017-11-07T05:15:42.648Z,0
2017-11-07T05:16:08.774Z,0
2017-11-07T05:16:34.880Z,0
2017-11-07T05:17:01.000Z,0
2017-11-07T05:17:27.122Z,0
2017-11-07T05:17:53.237Z,0
2017-11-07T05:18:19.356Z,0
2017-11-07T05:18:45.481Z,0
2017-11-07T05:19:11.597Z,0
2017-11-07T05:19:37.721Z,0
2017-11-07T05:20:03.836Z,0
2017-11-07T05:20:29.956Z,0
2017-11-07T05:20:56.072Z,0
2017-11-07T05:21:22.190Z,0
2017-11-07T05:21:48.316Z,0
2017-11-07T05:22:14.442Z,0
2017-11-07T05:22:40.553Z,0
2017-11-07T05:23:06.668Z,0
2017-11-07T05:23:32.790Z,0
2017-11-07T05:23:58.907Z,0
2017-11-07T05:24:25.034Z,0
2017-11-07T05:24:51.153Z,0
2017-11-07T05:25:17.291Z,0
2017-11-07T05:25:43.405Z,0
2017-11-07T05:26:09.524Z,0
2017-11-07T05:26:35.646Z,0
2017-11-07T05:27:01.761Z,0
2017-11-07T05:27:27.884Z,0
2017-11-07T05:27:54.026Z,0
2017-11-07T05:28:20.145Z,0
2017-11-07T05:28:46.260Z,0
2017-11-07T05:29:12.385Z,0
2017-11-07T05:29:38.540Z,0
2017-11-07T05:30:04.659Z,0
2017-11-07T05:30:30.787Z,0
2017-11-07T05:30:56.915Z,0
2017-11-07T05:31:23.031Z,0
2017-11-07T05:31:49.147Z,0
2017-11-07T05:32:15.268Z,0
2017-11-07T05:32:41.384Z,0
2017-11-07T05:33:07.501Z,0
2017-11-07T05:33:33.624Z,0
2017-11-07T05:33:59.736Z,0
2017-11-07T05:34:25.861Z,0
2017-11-07T05:34:51.972Z,0
2017-11-07T05:35:18.089Z,0
2017-11-07T05:35:44.207Z,0
2017-11-07T05:36:10.333Z,0
2017-11-07T05:36:36.447Z,0
2017-11-07T05:37:02.563Z,0
2017-11-07T05:37:28.687Z,0
2017-11-07T05:37:54.801Z,0
2017-11-07T05:38:20.922Z,0
2017-11-07T05:38:47.039Z,0
2017-11-07T05:39:13.159Z,0
2017-11-07T05:39:39.283Z,0
2017-11-07T05:40:05.419Z,0
2017-11-07T05:40:31.535Z,0
2017-11-07T05:40:57.659Z,0
2017-11-07T05:41:23.774Z,0
2017-11-07T05:41:49.902Z,0
2017-11-07T05:42:16.023Z,0
2017-11-07T05:42:42.136Z,0
2017-11-07T05:43:08.275Z,0
2017-11-07T05:43:34.379Z,0
2017-11-07T05:44:00.493Z,0
2017-11-07T05:44:26.618Z,0
2017-11-07T05:44:52.732Z,0
2017-11-07T05:45:18.857Z,0
2017-11-07T05:45:44.977Z,0
2017-11-07T05:46:11.117Z,0
2017-11-07T05:46:37.240Z,0
2017-11-07T05:47:03.359Z,0
2017-11-07T05:47:29.478Z,0
2017-11-07T05:47:55.592Z,0
2017-11-07T05:48:21.720Z,0
2017-11-07T05:48:47.838Z,0
2017-11-07T05:49:13.950Z,0
2017-11-07T05:49:40.075Z,0
2017-11-07T05:50:06.188Z,0
2017-11-07T05:50:32.315Z,0
2017-11-07T05:50:58.438Z,0
2017-11-07T05:51:24.558Z,0
2017-11-07T05:51:50.679Z,0
2017-11-07T05:52:16.791Z,0
2017-11-07T05:52:42.908Z,0
2017-11-07T05:53:09.029Z,0
2017-11-07T05:53:35.147Z,0
2017-11-07T05:54:01.263Z,0
2017-11-07T05:54:27.380Z,0
2017-11-07T05:54:53.503Z,0
2017-11-07T05:55:19.621Z,0
2017-11-07T05:55:45.751Z,0
2017-11-07T05:56:11.865Z,0
2017-11-07T05:56:37.984Z,4
2017-11-07T05:57:04.104Z,4
2017-11-07T05:57:30.216Z,4
2017-11-07T05:57:56.334Z,4
2017-11-07T05:58:22.472Z,4
2017-11-07T05:58:48.573Z,0
2017-11-07T05:59:14.697Z,0
2017-11-07T05:59:40.818Z,0
2017-11-07T06:00:06.937Z,4
2017-11-07T06:00:33.059Z,4
2017-11-07T06:00:59.193Z,4
2017-11-07T06:01:25.318Z,4
2017-11-07T06:01:51.434Z,4
2017-11-07T06:02:17.558Z,4
2017-11-07T06:02:43.678Z,4
2017-11-07T06:03:09.793Z,4
2017-11-07T06:03:35.916Z,8
2017-11-07T06:04:02.031Z,4
2017-11-07T06:04:28.156Z,4
2017-11-07T06:04:54.277Z,4
2017-11-07T06:05:20.396Z,8
2017-11-07T06:05:46.515Z,4
2017-11-07T06:06:12.630Z,8
2017-11-07T06:06:38.755Z,12
2017-11-07T06:07:04.871Z,8
2017-11-07T06:07:30.986Z,12
2017-11-07T06:07:57.109Z,8
2017-11-07T06:08:23.224Z,12
2017-11-07T06:08:49.349Z,12
2017-11-07T06:09:15.464Z,16
2017-11-07T06:09:41.585Z,12
2017-11-07T06:10:07.724Z,16
2017-11-07T06:10:33.841Z,16
2017-11-07T06:10:59.962Z,16
2017-11-07T06:11:26.089Z,20
2017-11-07T06:11:52.199Z,20
2017-11-07T06:12:18.313Z,24
2017-11-07T06:12:44.428Z,24
2017-11-07T06:13:10.557Z,24
2017-11-07T06:13:36.677Z,28
2017-11-07T06:14:02.805Z,32
2017-11-07T06:14:28.929Z,36
2017-11-07T06:14:55.047Z,36
2017-11-07T06:15:21.168Z,40
2017-11-07T06:15:47.291Z,44
2017-11-07T06:16:13.409Z,48
2017-11-07T06:16:39.529Z,52
2017-11-07T06:17:05.647Z,52
2017-11-07T06:17:31.762Z,56
2017-11-07T06:17:57.878Z,60
2017-11-07T06:18:24.004Z,68
2017-11-07T06:18:50.124Z,68
2017-11-07T06:19:16.237Z,72
2017-11-07T06:19:42.354Z,84
2017-11-07T06:20:08.477Z,84
2017-11-07T06:20:34.594Z,92
2017-11-07T06:21:00.718Z,100
2017-11-07T06:21:26.837Z,104
2017-11-07T06:21:52.953Z,108
2017-11-07T06:22:19.071Z,116
2017-11-07T06:22:45.197Z,120
2017-11-07T06:23:11.315Z,132
2017-11-07T06:23:37.434Z,140
2017-11-07T06:24:03.547Z,148
2017-11-07T06:24:29.672Z,156
2017-11-07T06:24:55.790Z,164
2017-11-07T06:25:21.905Z,172
2017-11-07T06:25:48.033Z,184